createdAt,value
2019-06-10T00:00:41.838Z,6.17
2019-06-10T00:03:11.657Z,5.40
2019-06-10T00:05:41.437Z,6.12
2019-06-10T00:08:11.792Z,5.72
2019-06-10T00:10:42.252Z,5.60
2019-06-10T00:13:11.904Z,5.20
2019-06-10T00:15:41.067Z,5.55
2019-06-10T00:18:32.906Z,5.85
2019-06-10T00:20:40.887Z,5.45
2019-06-10T00:23:12.315Z,6.40
2019-06-10T00:25:41.491Z,5.80
2019-06-10T00:28:11.984Z,5.70
2019-06-10T00:30:41.232Z,5.22
2019-06-10T00:33:12.400Z,5.58
2019-06-10T00:35:41.268Z,5.03
2019-06-10T00:38:14.017Z,5.10
2019-06-10T00:40:41.404Z,5.53
2019-06-10T00:43:13.274Z,5.55
2019-06-10T00:45:41.170Z,5.62
2019-06-10T00:48:21.454Z,5.08
2019-06-10T00:50:41.430Z,5.90
2019-06-10T00:53:14.263Z,5.83
2019-06-10T00:55:41.580Z,6.08
2019-06-10T00:58:13.705Z,5.50
2019-06-10T01:00:41.317Z,6.17
2019-06-10T01:03:13.457Z,6.62
2019-06-10T01:05:42.289Z,6.78
2019-06-10T01:08:13.950Z,6.70
2019-06-10T01:10:43.730Z,6.05
2019-06-10T01:13:13.208Z,5.90
2019-06-10T01:15:41.873Z,5.87
2019-06-10T01:18:30.607Z,5.95
2019-06-10T01:20:41.405Z,6.22
2019-06-10T01:23:13.534Z,6.62
2019-06-10T01:25:42.206Z,6.55
2019-06-10T01:28:14.550Z,5.97
2019-06-10T01:30:41.218Z,6.62
2019-06-10T01:33:12.415Z,7.03
2019-06-10T01:35:41.597Z,6.37
2019-06-10T01:38:12.901Z,6.47
2019-06-10T01:40:42.217Z,6.47
2019-06-10T01:43:13.403Z,6.03
2019-06-10T01:45:42.071Z,6.00
2019-06-10T01:48:13.076Z,7.70
2019-06-10T01:50:40.986Z,5.60
2019-06-10T01:53:12.237Z,6.20
2019-06-10T01:55:41.768Z,5.90
2019-06-10T01:58:12.439Z,5.60
2019-06-10T02:00:44.278Z,5.40
2019-06-10T02:03:16.229Z,5.10
2019-06-10T02:05:42.889Z,5.12
2019-06-10T02:08:12.980Z,5.80
2019-06-10T02:10:41.662Z,5.05
2019-06-10T02:13:13.335Z,5.08
2019-06-10T02:15:41.923Z,5.50
2019-06-10T02:18:12.257Z,5.22
2019-06-10T02:20:41.257Z,5.30
2019-06-10T02:23:12.333Z,4.95
2019-06-10T02:25:41.217Z,5.28
2019-06-10T02:28:13.018Z,4.47
2019-06-10T02:30:49.906Z,5.10
2019-06-10T02:33:12.836Z,4.60
2019-06-10T02:35:48.487Z,4.80
2019-06-10T02:38:13.250Z,4.83
2019-06-10T02:40:43.353Z,4.40
2019-06-10T02:43:16.069Z,4.67
2019-06-10T02:45:44.492Z,4.30
2019-06-10T02:48:16.138Z,4.97
2019-06-10T02:50:53.950Z,4.60
2019-06-10T02:53:30.158Z,4.90
2019-06-10T02:55:53.808Z,4.40
2019-06-10T02:58:30.466Z,4.92
2019-06-10T03:00:54.632Z,4.60
2019-06-10T03:03:35.373Z,5.15
2019-06-10T03:05:53.914Z,5.17
2019-06-10T03:08:27.294Z,4.40
2019-06-10T03:10:54.821Z,4.47
2019-06-10T03:13:25.448Z,5.35
2019-06-10T03:16:06.875Z,5.08
2019-06-10T03:18:35.324Z,6.03
2019-06-10T03:21:03.771Z,6.17
2019-06-10T03:23:32.228Z,5.42
2019-06-10T03:26:03.928Z,5.42
2019-06-10T03:28:32.240Z,5.00
2019-06-10T03:31:04.909Z,4.37
2019-06-10T03:33:40.456Z,5.15
2019-06-10T03:36:03.233Z,5.40
2019-06-10T03:38:32.495Z,4.78
2019-06-10T03:41:03.336Z,5.25
2019-06-10T03:43:32.862Z,5.20
2019-06-10T03:46:02.973Z,5.22
2019-06-10T03:48:32.926Z,5.67
2019-06-10T03:51:03.420Z,5.70
2019-06-10T03:53:33.744Z,5.70
2019-06-10T03:56:02.605Z,6.47
2019-06-10T03:58:32.820Z,6.20
2019-06-10T04:01:03.227Z,6.15
2019-06-10T04:03:33.830Z,5.80
2019-06-10T04:06:02.544Z,6.17
2019-06-10T04:08:32.989Z,6.45
2019-06-10T04:11:02.861Z,6.65
2019-06-10T04:13:33.749Z,6.80
2019-06-10T04:16:02.570Z,5.70
2019-06-10T04:18:32.875Z,6.78
2019-06-10T04:21:02.310Z,6.62
2019-06-10T04:23:33.259Z,7.10
2019-06-10T04:26:02.397Z,7.15
2019-06-10T04:28:33.754Z,7.22
2019-06-10T04:31:02.484Z,6.55
2019-06-10T04:33:32.933Z,6.90
2019-06-10T04:36:02.953Z,6.95
2019-06-10T04:38:32.724Z,6.53
2019-06-10T04:41:03.314Z,6.25
2019-06-10T04:43:32.566Z,7.10
2019-06-10T04:46:02.306Z,6.90
2019-06-10T04:48:32.601Z,6.28
2019-06-10T04:51:02.718Z,6.45
2019-06-10T04:53:32.911Z,6.08
2019-06-10T04:56:02.931Z,6.53
2019-06-10T04:58:33.345Z,6.60
2019-06-10T05:01:03.163Z,6.78
2019-06-10T05:03:32.987Z,6.03
2019-06-10T05:06:03.427Z,6.15
2019-06-10T05:08:33.787Z,6.05
2019-06-10T05:11:03.646Z,5.92
2019-06-10T05:13:33.674Z,6.05
2019-06-10T05:16:03.566Z,5.60
2019-06-10T05:18:33.246Z,5.10
2019-06-10T05:21:02.869Z,5.03
2019-06-10T05:23:33.010Z,5.80
2019-06-10T05:26:02.826Z,5.83
2019-06-10T05:28:33.869Z,5.80
2019-06-10T05:31:02.859Z,5.75
2019-06-10T05:33:33.443Z,5.25
2019-06-10T05:36:02.585Z,5.60
2019-06-10T05:38:35.116Z,7.42
2019-06-10T05:41:02.972Z,5.90
2019-06-10T05:43:34.078Z,6.20
2019-06-10T05:46:03.031Z,7.03
2019-06-10T05:48:33.594Z,6.17
2019-06-10T05:51:05.778Z,5.78
2019-06-10T05:53:34.942Z,5.80
2019-06-10T05:56:02.407Z,6.00
2019-06-10T05:58:34.189Z,5.17
2019-06-10T06:01:02.821Z,5.05
2019-06-10T06:03:36.297Z,5.10
2019-06-10T06:06:03.197Z,5.10
2019-06-10T06:08:34.890Z,5.28
2019-06-10T06:11:03.175Z,4.40
2019-06-10T06:13:34.135Z,5.15
2019-06-10T06:16:03.262Z,4.40
2019-06-10T06:18:34.682Z,5.00
2019-06-10T06:21:19.986Z,4.65
2019-06-10T06:23:33.855Z,4.85
2019-06-10T06:26:03.976Z,4.83
2019-06-10T06:28:34.636Z,5.12
2019-06-10T06:31:03.460Z,4.75
2019-06-10T06:33:34.699Z,4.72
2019-06-10T06:36:03.467Z,4.78
2019-06-10T06:38:34.926Z,4.97
2019-06-10T06:41:03.241Z,4.75
2019-06-10T06:43:36.295Z,4.78
2019-06-10T06:46:02.607Z,5.10
2019-06-10T06:48:35.619Z,5.33
2019-06-10T06:51:08.104Z,4.80
2019-06-10T06:53:39.563Z,4.72
2019-06-10T06:56:03.701Z,4.70
2019-06-10T06:58:33.908Z,4.30
2019-06-10T07:01:10.049Z,3.92
2019-06-10T07:03:35.374Z,4.28
2019-06-10T07:06:03.372Z,3.92
2019-06-10T07:08:36.097Z,3.80
2019-06-10T07:11:04.267Z,3.62
2019-06-10T07:13:35.913Z,3.47
2019-06-10T07:16:04.222Z,3.67
2019-06-10T07:18:34.618Z,3.80
2019-06-10T07:21:03.039Z,3.52
2019-06-10T07:23:34.499Z,4.22
2019-06-10T07:26:02.690Z,3.37
2019-06-10T07:28:34.194Z,3.95
2019-06-10T07:31:03.256Z,3.35
2019-06-10T07:33:34.762Z,3.55
2019-06-10T07:36:03.215Z,3.80
2019-06-10T07:38:33.858Z,3.22
2019-06-10T07:41:02.559Z,3.40
2019-06-10T07:43:32.841Z,3.52
2019-06-10T07:46:03.319Z,3.60
2019-06-10T07:48:34.489Z,3.98
2019-06-10T07:51:02.887Z,4.45
2019-06-10T07:53:33.197Z,4.22
2019-06-10T07:56:03.200Z,4.12
2019-06-10T07:58:34.979Z,3.30
2019-06-10T08:01:02.870Z,3.50
2019-06-10T08:03:34.366Z,4.80
2019-06-10T08:06:03.333Z,4.00
2019-06-10T08:08:32.938Z,3.90
2019-06-10T08:11:03.386Z,4.67
2019-06-10T08:13:32.237Z,4.37
2019-06-10T08:16:02.770Z,4.12
2019-06-10T08:18:38.558Z,3.87
2019-06-10T08:21:03.161Z,4.05
2019-06-10T08:23:32.803Z,4.10
2019-06-10T08:26:03.393Z,3.95
2019-06-10T08:28:33.332Z,3.90
2019-06-10T08:31:03.650Z,4.20
2019-06-10T08:33:33.042Z,4.20
2019-06-10T08:36:04.079Z,4.28
2019-06-10T08:38:33.064Z,4.55
2019-06-10T08:41:03.211Z,4.75
2019-06-10T08:43:33.216Z,4.35
2019-06-10T08:46:02.628Z,3.77
2019-06-10T08:48:33.039Z,4.10
2019-06-10T08:51:03.885Z,3.87
2019-06-10T08:53:33.056Z,3.87
2019-06-10T08:56:02.844Z,3.33
2019-06-10T08:58:33.119Z,3.42
2019-06-10T09:01:02.453Z,3.80
2019-06-10T09:03:32.478Z,3.90
2019-06-10T09:06:02.684Z,3.80
2019-06-10T09:08:32.560Z,4.20
2019-06-10T09:11:02.436Z,3.45
2019-06-10T09:13:33.712Z,3.35
2019-06-10T09:16:12.829Z,3.27
2019-06-10T09:18:33.659Z,3.30
2019-06-10T09:21:02.432Z,3.30
2019-06-10T09:23:33.088Z,3.33
2019-06-10T09:26:03.597Z,3.08
2019-06-10T09:28:32.846Z,3.72
2019-06-10T09:31:04.324Z,4.00
2019-06-10T09:33:33.059Z,3.45
2019-06-10T09:36:03.219Z,3.40
2019-06-10T09:38:33.435Z,3.37
2019-06-10T09:41:05.991Z,3.37
2019-06-10T09:43:33.309Z,3.72
2019-06-10T09:46:03.600Z,3.40
2019-06-10T09:48:33.545Z,3.65
2019-06-10T09:51:02.655Z,3.65
2019-06-10T09:53:39.305Z,3.17
2019-06-10T09:56:04.175Z,3.42
2019-06-10T09:58:32.965Z,3.45
2019-06-10T10:01:03.260Z,3.35
2019-06-10T10:03:32.935Z,3.67
2019-06-10T10:06:11.625Z,3.30
2019-06-10T10:08:33.922Z,3.20
2019-06-10T10:11:02.417Z,3.87
2019-06-10T10:13:34.957Z,4.00
2019-06-10T10:16:02.580Z,3.85
2019-06-10T10:18:33.443Z,3.47
2019-06-10T10:21:03.826Z,3.37
2019-06-10T10:23:48.375Z,3.30
2019-06-10T10:26:03.431Z,3.72
2019-06-10T10:28:33.534Z,3.42
2019-06-10T10:31:03.879Z,3.42
2019-06-10T10:33:33.258Z,3.62
2019-06-10T10:36:02.869Z,3.17
2019-06-10T10:38:34.596Z,3.40
2019-06-10T10:41:04.554Z,3.47
2019-06-10T10:43:36.456Z,3.50
2019-06-10T10:46:05.592Z,3.85
2019-06-10T10:48:33.561Z,3.58
2019-06-10T10:51:03.471Z,3.30
2019-06-10T10:53:32.906Z,3.22
2019-06-10T10:56:02.527Z,3.27
2019-06-10T10:58:33.018Z,3.25
2019-06-10T11:01:04.070Z,3.45
2019-06-10T11:03:33.671Z,3.22
2019-06-10T11:06:01.665Z,2.98
2019-06-10T11:08:32.408Z,3.60
2019-06-10T11:11:05.166Z,3.20
2019-06-10T11:13:35.525Z,2.92
2019-06-10T11:16:04.143Z,3.08
2019-06-10T11:18:34.049Z,3.02
2019-06-10T11:21:05.087Z,3.00
2019-06-10T11:23:33.737Z,3.10
2019-06-10T11:26:03.121Z,3.00
2019-06-10T11:28:32.176Z,3.65
2019-06-10T11:31:03.236Z,2.90
2019-06-10T11:33:32.895Z,2.80
2019-06-10T11:36:02.876Z,3.17
2019-06-10T11:38:32.923Z,3.10
2019-06-10T11:41:01.875Z,2.50
2019-06-10T11:43:32.891Z,2.75
2019-06-10T11:46:06.820Z,3.02
2019-06-10T11:48:32.786Z,3.30
2019-06-10T11:51:03.522Z,3.10
2019-06-10T11:53:31.210Z,3.08
2019-06-10T11:56:02.198Z,3.00
2019-06-10T11:58:29.995Z,2.70
2019-06-10T12:01:00.212Z,2.62
2019-06-10T12:03:28.699Z,3.02
2019-06-10T12:06:00.738Z,2.85
2019-06-10T12:08:27.389Z,2.40
2019-06-10T12:10:59.112Z,3.20
2019-06-10T12:13:26.007Z,2.80
2019-06-10T12:16:35.004Z,2.80
2019-06-10T12:18:24.940Z,2.80
2019-06-10T12:20:57.592Z,3.10
2019-06-10T12:23:23.566Z,2.58
2019-06-10T12:25:54.464Z,2.90
2019-06-10T12:28:22.174Z,3.15
2019-06-10T12:30:55.825Z,4.00
2019-06-10T12:33:24.999Z,2.67
2019-06-10T12:35:54.394Z,2.90
2019-06-10T12:38:22.779Z,2.95
2019-06-10T12:40:52.517Z,3.37
2019-06-10T12:43:23.183Z,3.17
2019-06-10T12:45:53.962Z,3.17
2019-06-10T12:48:22.408Z,3.17
2019-06-10T12:50:52.832Z,3.00
2019-06-10T12:53:22.847Z,3.50
2019-06-10T12:55:53.564Z,3.17
2019-06-10T12:58:22.632Z,2.85
2019-06-10T13:00:53.161Z,3.67
2019-06-10T13:03:23.725Z,3.02
2019-06-10T13:05:53.322Z,2.95
2019-06-10T13:08:23.885Z,2.95
2019-06-10T13:10:53.321Z,2.80
2019-06-10T13:13:22.709Z,3.12
2019-06-10T13:15:53.161Z,2.98
2019-06-10T13:18:23.741Z,2.90
2019-06-10T13:20:53.878Z,2.80
2019-06-10T13:23:28.946Z,3.05
2019-06-10T13:25:57.854Z,3.10
2019-06-10T13:28:22.506Z,2.75
2019-06-10T13:30:54.000Z,3.15
2019-06-10T13:33:22.879Z,3.00
2019-06-10T13:35:53.538Z,3.10
2019-06-10T13:38:22.818Z,2.75
2019-06-10T13:40:53.288Z,2.90
2019-06-10T13:43:23.169Z,3.47
2019-06-10T13:45:53.266Z,3.42
2019-06-10T13:48:23.316Z,3.00
2019-06-10T13:50:52.825Z,3.58
2019-06-10T13:53:21.560Z,3.17
2019-06-10T13:56:32.106Z,3.50
2019-06-10T13:58:39.508Z,3.15
2019-06-10T14:01:12.192Z,3.52
2019-06-10T14:03:38.456Z,3.22
2019-06-10T14:06:20.831Z,3.42
2019-06-10T14:08:37.162Z,3.37
2019-06-10T14:11:07.600Z,3.75
2019-06-10T14:13:35.939Z,3.10
2019-06-10T14:16:05.607Z,3.62
2019-06-10T14:18:34.143Z,3.98
2019-06-10T14:21:06.628Z,3.70
2019-06-10T14:23:33.182Z,3.70
2019-06-10T14:26:03.209Z,3.52
2019-06-10T14:28:40.560Z,3.70
2019-06-10T14:31:05.038Z,3.47
2019-06-10T14:33:33.038Z,3.62
2019-06-10T14:36:04.965Z,3.85
2019-06-10T14:38:32.758Z,3.50
2019-06-10T14:41:03.370Z,3.70
2019-06-10T14:43:33.205Z,3.75
2019-06-10T14:46:02.072Z,3.90
2019-06-10T14:48:33.463Z,3.60
2019-06-10T14:51:03.081Z,3.67
2019-06-10T14:53:33.457Z,3.52
2019-06-10T14:56:03.643Z,4.12
2019-06-10T14:58:31.338Z,3.80
2019-06-10T15:00:59.778Z,3.85
2019-06-10T15:03:28.303Z,3.90
2019-06-10T15:05:56.760Z,3.92
2019-06-10T15:08:25.209Z,3.40
2019-06-10T15:10:53.657Z,3.45
2019-06-10T15:13:23.466Z,3.92
2019-06-10T15:15:53.175Z,3.70
2019-06-10T15:18:23.798Z,3.90
2019-06-10T15:20:53.504Z,3.50
2019-06-10T15:23:23.573Z,3.80
2019-06-10T15:25:55.986Z,4.03
2019-06-10T15:28:23.591Z,3.70
2019-06-10T15:30:52.702Z,4.00
2019-06-10T15:33:23.722Z,4.08
2019-06-10T15:35:53.274Z,3.50
2019-06-10T15:38:23.188Z,3.83
2019-06-10T15:40:53.205Z,3.80
2019-06-10T15:43:23.535Z,3.25
2019-06-10T15:45:52.988Z,3.92
2019-06-10T15:48:24.992Z,4.42
2019-06-10T15:50:51.854Z,3.85
2019-06-10T15:53:21.533Z,4.25
2019-06-10T15:56:10.347Z,3.65
2019-06-10T15:58:21.797Z,4.25
2019-06-10T16:00:53.106Z,4.30
2019-06-10T16:03:25.048Z,3.98
2019-06-10T16:05:52.886Z,4.45
2019-06-10T16:08:22.536Z,4.10
2019-06-10T16:10:52.589Z,4.00
2019-06-10T16:13:24.000Z,4.22
2019-06-10T16:15:53.163Z,3.70
2019-06-10T16:18:25.958Z,4.37
2019-06-10T16:20:52.787Z,4.47
2019-06-10T16:23:24.678Z,4.15
2019-06-10T16:25:53.622Z,4.25
2019-06-10T16:28:24.544Z,3.60
2019-06-10T16:30:53.608Z,3.87
2019-06-10T16:33:27.090Z,3.47
2019-06-10T16:35:52.699Z,4.28
2019-06-10T16:38:23.742Z,4.05
2019-06-10T16:40:53.791Z,4.45
2019-06-10T16:43:24.062Z,4.28
2019-06-10T16:45:52.533Z,4.50
2019-06-10T16:48:21.557Z,4.08
2019-06-10T16:50:54.061Z,3.92
2019-06-10T16:53:25.845Z,4.28
2019-06-10T16:55:52.703Z,4.22
2019-06-10T16:58:23.669Z,4.37
2019-06-10T17:00:51.138Z,3.60
2019-06-10T17:03:21.096Z,4.10
2019-06-10T17:05:50.135Z,4.12
2019-06-10T17:08:19.856Z,4.03
2019-06-10T17:10:48.762Z,3.50
2019-06-10T17:13:19.046Z,3.98
2019-06-10T17:15:47.484Z,4.03
2019-06-10T17:18:15.991Z,3.35
2019-06-10T17:20:44.423Z,3.70
2019-06-10T17:23:26.608Z,4.12
2019-06-10T17:25:55.985Z,4.03
2019-06-10T17:28:28.956Z,3.55
2019-06-10T17:30:56.388Z,3.83
2019-06-10T17:33:26.208Z,3.65
2019-06-10T17:35:55.002Z,4.08
2019-06-10T17:38:24.637Z,3.72
2019-06-10T17:40:53.510Z,4.10
2019-06-10T17:43:23.140Z,3.85
2019-06-10T17:45:52.820Z,3.80
2019-06-10T17:48:23.695Z,4.15
2019-06-10T17:50:52.493Z,3.60
2019-06-10T17:53:22.352Z,3.75
2019-06-10T17:55:51.110Z,4.08
2019-06-10T17:58:33.495Z,3.95
2019-06-10T18:00:52.778Z,3.70
2019-06-10T18:03:22.634Z,3.62
2019-06-10T18:05:53.266Z,3.67
2019-06-10T18:08:22.864Z,3.70
2019-06-10T18:10:53.497Z,3.72
2019-06-10T18:13:23.158Z,3.62
2019-06-10T18:15:53.465Z,4.05
2019-06-10T18:18:22.252Z,3.90
2019-06-10T18:20:53.570Z,3.77
2019-06-10T18:23:23.065Z,3.45
2019-06-10T18:25:52.798Z,3.67
2019-06-10T18:28:22.609Z,3.80
2019-06-10T18:30:53.222Z,3.77
2019-06-10T18:33:23.055Z,3.60
2019-06-10T18:35:53.332Z,3.55
2019-06-10T18:38:22.003Z,3.77
2019-06-10T18:40:53.317Z,4.03
2019-06-10T18:43:22.992Z,3.42
2019-06-10T18:45:53.281Z,3.80
2019-06-10T18:48:23.138Z,3.62
2019-06-10T18:50:53.289Z,3.50
2019-06-10T18:53:23.359Z,3.90
2019-06-10T18:55:54.540Z,3.90
2019-06-10T18:58:22.391Z,3.77
2019-06-10T19:01:02.737Z,3.90
2019-06-10T19:03:23.317Z,3.60
2019-06-10T19:05:52.900Z,3.95
2019-06-10T19:08:22.409Z,3.92
2019-06-10T19:10:53.671Z,4.00
2019-06-10T19:13:22.531Z,3.90
2019-06-10T19:15:53.166Z,3.92
2019-06-10T19:18:23.241Z,4.37
2019-06-10T19:20:53.019Z,3.95
2019-06-10T19:23:23.657Z,4.15
2019-06-10T19:25:53.175Z,4.33
2019-06-10T19:28:22.835Z,4.55
2019-06-10T19:30:53.484Z,4.40
2019-06-10T19:33:23.628Z,3.80
2019-06-10T19:35:53.209Z,4.45
2019-06-10T19:38:23.043Z,4.28
2019-06-10T19:40:52.218Z,4.40
2019-06-10T19:43:20.989Z,4.15
2019-06-10T19:45:49.455Z,4.40
2019-06-10T19:48:17.936Z,4.37
2019-06-10T19:50:50.153Z,4.20
2019-06-10T19:53:16.919Z,4.10
2019-06-10T19:55:46.124Z,4.47
2019-06-10T19:58:14.704Z,3.90
2019-06-10T20:00:50.615Z,3.98
2019-06-10T20:03:13.688Z,4.30
2019-06-10T20:05:44.919Z,4.40
2019-06-10T20:08:12.299Z,4.22
2019-06-10T20:10:40.752Z,4.00
2019-06-10T20:13:09.182Z,4.37
2019-06-10T20:15:37.643Z,4.70
2019-06-10T20:18:06.070Z,4.60
2019-06-10T20:20:35.989Z,5.22
2019-06-10T20:23:04.751Z,4.80
2019-06-10T20:25:33.200Z,4.33
2019-06-10T20:28:02.835Z,4.20
2019-06-10T20:30:33.258Z,4.78
2019-06-10T20:33:03.328Z,4.85
2019-06-10T20:35:32.742Z,4.78
2019-06-10T20:38:04.663Z,4.53
2019-06-10T20:40:32.174Z,4.60
2019-06-10T20:43:03.200Z,5.42
2019-06-10T20:45:33.187Z,4.95
2019-06-10T20:48:02.756Z,4.70
2019-06-10T20:50:32.299Z,4.78
2019-06-10T20:53:12.056Z,5.35
2019-06-10T20:55:40.354Z,4.60
2019-06-10T20:58:06.121Z,5.00
2019-06-10T21:00:37.057Z,5.28
2019-06-10T21:03:06.228Z,5.00
2019-06-10T21:05:35.184Z,4.83
2019-06-10T21:08:04.769Z,5.05
2019-06-10T21:10:37.882Z,5.97
2019-06-10T21:13:07.538Z,4.28
2019-06-10T21:15:36.714Z,5.20
2019-06-10T21:18:05.981Z,4.65
2019-06-10T21:20:34.479Z,4.75
2019-06-10T21:23:03.357Z,5.40
2019-06-10T21:25:32.815Z,5.60
2019-06-10T21:28:03.345Z,5.47
2019-06-10T21:30:40.612Z,5.03
2019-06-10T21:33:03.651Z,5.55
2019-06-10T21:35:34.167Z,5.50
2019-06-10T21:38:02.998Z,5.30
2019-06-10T21:40:33.028Z,5.15
2019-06-10T21:43:02.927Z,5.37
2019-06-10T21:45:32.503Z,5.87
2019-06-10T21:48:02.219Z,5.62
2019-06-10T21:50:33.370Z,6.25
2019-06-10T21:53:02.969Z,5.75
2019-06-10T21:55:33.158Z,6.08
2019-06-10T21:58:03.652Z,5.62
2019-06-10T22:00:52.086Z,6.30
2019-06-10T22:03:06.794Z,5.78
2019-06-10T22:05:35.235Z,5.90
2019-06-10T22:08:03.751Z,5.28
2019-06-10T22:10:33.594Z,4.80
2019-06-10T22:13:03.178Z,5.42
2019-06-10T22:15:33.391Z,5.85
2019-06-10T22:18:02.361Z,5.92
2019-06-10T22:20:32.510Z,6.55
2019-06-10T22:23:02.630Z,5.50
2019-06-10T22:25:32.799Z,6.28
2019-06-10T22:28:02.737Z,6.70
2019-06-10T22:30:32.154Z,6.08
2019-06-10T22:33:03.038Z,6.20
2019-06-10T22:35:31.028Z,6.15
2019-06-10T22:37:59.510Z,6.20
2019-06-10T22:40:27.998Z,5.42
2019-06-10T22:42:56.755Z,5.55
2019-06-10T22:45:25.380Z,7.08
2019-06-10T22:47:55.299Z,6.40
2019-06-10T22:50:24.236Z,5.72
2019-06-10T22:52:54.599Z,5.90
2019-06-10T22:55:22.869Z,5.42
2019-06-10T22:57:54.684Z,5.83
2019-06-10T23:00:22.278Z,5.80
2019-06-10T23:02:53.402Z,5.47
2019-06-10T23:05:23.239Z,5.97
2019-06-10T23:07:53.302Z,6.05
2019-06-10T23:10:22.911Z,5.62
2019-06-10T23:12:54.757Z,6.20
2019-06-10T23:15:23.477Z,5.45
2019-06-10T23:17:55.064Z,6.40
2019-06-10T23:20:22.448Z,5.78
2019-06-10T23:23:12.550Z,6.75
2019-06-10T23:25:42.724Z,6.12
2019-06-10T23:28:12.737Z,6.10
2019-06-10T23:30:42.775Z,6.55
2019-06-10T23:33:12.444Z,6.22
2019-06-10T23:35:42.911Z,6.05
2019-06-10T23:38:13.127Z,6.10
2019-06-10T23:40:43.052Z,6.45
2019-06-10T23:43:13.160Z,6.28
2019-06-10T23:45:42.278Z,6.00
2019-06-10T23:48:13.369Z,6.37
2019-06-10T23:50:43.744Z,6.87
2019-06-10T23:53:13.121Z,7.15
2019-06-10T23:55:42.699Z,5.83
2019-06-10T23:58:13.019Z,6.97
